This is the latest recevied weather packets stored in our database for station/object AE6BH. If no packets are shown the sender has not sent any weather packets the latest 10 day(s).
| Time | Temp. | Humidity | Pressure | Rain* | Wind** | Luminosity | Snow |
|---|---|---|---|---|---|---|---|
| 1778091992 | 21.11° C | 47% | 1018.2 hPa | 0 mm | - | 746 W/m² | - |
| 1778091688 | 21.11° C | 45% | 1018.1 hPa | 0 mm | - | 727 W/m² | - |
| 1778091386 | 20.56° C | 47% | 1018.2 hPa | 0 mm | - | 718 W/m² | - |
| 1778091083 | 21.11° C | 45% | 1018.2 hPa | 0 mm | - | 712 W/m² | - |
| 1778090780 | 21.11° C | 46% | 1018.4 hPa | 0 mm | - | 741 W/m² | - |
| 1778090476 | 20.56° C | 48% | 1018.3 hPa | 0 mm | - | 750 W/m² | - |
| 1778090173 | 21.11° C | 46% | 1018.4 hPa | 0 mm | - | 768 W/m² | - |
| 1778089869 | 21.11° C | 47% | 1018.6 hPa | 0 mm | - | 770 W/m² | - |
| 1778089568 | 20° C | 51% | 1018.4 hPa | 0 mm | - | 788 W/m² | - |
| 1778089264 | 20.56° C | 48% | 1018.4 hPa | 0 mm | - | 811 W/m² | - |
| 1778088962 | 20.56° C | 49% | 1018.6 hPa | 0 mm | - | 820 W/m² | - |
| 1778088658 | 20° C | 51% | 1018.5 hPa | 0 mm | - | 844 W/m² | - |
| 1778088356 | 18.89° C | 52% | 1018.5 hPa | 0 mm | - | 816 W/m² | - |
| 1778088052 | 18.89° C | 52% | 1018.8 hPa | 0 mm | - | 798 W/m² | - |
| 1778087749 | 19.44° C | 52% | 1018.7 hPa | 0 mm | - | 733 W/m² | - |
| 1778087446 | 19.44° C | 51% | 1018.7 hPa | 0 mm | - | 707 W/m² | - |
| 1778087138 | 18.89° C | 51% | 1018.7 hPa | 0 mm | - | 684 W/m² | - |
| 1778086836 | 18.89° C | 53% | 1018.9 hPa | 0 mm | - | 654 W/m² | - |
| 1778086534 | 18.89° C | 52% | 1018.8 hPa | 0 mm | - | 647 W/m² | - |
| 1778086230 | 19.44° C | 52% | 1018.7 hPa | 0 mm | - | 647 W/m² | - |
| 1778085927 | 18.89° C | 53% | 1018.9 hPa | 0 mm | - | 629 W/m² | - |
| 1778085624 | 18.33° C | 56% | 1018.9 hPa | 0 mm | - | 593 W/m² | - |
| 1778085320 | 18.33° C | 56% | 1018.8 hPa | 0 mm | - | 569 W/m² | - |
| 1778085016 | 18.33° C | 59% | 1018.8 hPa | 0 mm | - | 547 W/m² | - |
| 1778084713 | 17.78° C | 62% | 1018.9 hPa | 0 mm | - | 548 W/m² | - |
* Rain latest hour (hover to see other rain measurements)
** Current wind speed in m/s (hover to see current wind gust speed)